Time;durP1;ratioP1;P1;durP2;ratioP2;P2;SDS_P1;SDS_P2;PMS_P1;PMS_P2;Temp;Humidity;BMP_temperature;BMP_pressure;BME280_temperature;BME280_humidity;BME280_pressure;Samples;Min_cycle;Max_cycle;Signal;HPM_P1;HPM_P2
2023/10/22 00:02:44;;;;;;;;;;;;;;;;;;;;;
2023/10/22 00:05:40;;;;;;;;;;;;;;;;;;;;;
2023/10/22 00:11:23;;;;;;;;;;;;;;;19.54;46.41;99119.97;6256155;23;19909;-95
2023/10/22 00:13:51;;;;;;;;;;;;;;;19.62;46.33;99129.22;6230794;23;19963;-94
2023/10/22 00:19:58;;;;;;;;;;;;;;;19.77;46.58;99120.44;6212455;23;19908;-96
2023/10/22 00:22:40;;;;;;;;;;;;;;;;;;;;;
2023/10/22 00:25:08;;;;;;;;;;;;;;;19.95;46.64;99124.59;6236330;23;19932;-96
2023/10/22 00:27:38;;;;;;;;;;;;;;;20.05;46.37;99119.84;6207223;23;19908;-95
2023/10/22 00:30:30;;;;;;;;;;;;;;;20.13;46.18;99111.56;6233757;23;19907;-96
2023/10/22 00:36:44;;;;;;;;;;;;;;;20.25;46.14;99108.03;6214184;23;19918;-95
2023/10/22 00:39:02;;;;;;;;;;;;;;;20.29;46.39;99108.94;6250047;23;19918;-96
2023/10/22 00:41:43;;;;;;;;;;;;;;;;;;;;;
2023/10/22 00:44:42;;;;;;;;;;;;;;;;;;;;;
2023/10/22 00:47:40;;;;;;;;;;;;;;;;;;;;;
2023/10/22 00:50:40;;;;;;;;;;;;;;;;;;;;;
2023/10/22 00:53:08;;;;;;;;;;;;;;;20.48;45.83;99102.13;6232529;23;19931;-96
2023/10/22 00:55:40;;;;;;;;;;;;;;;20.50;45.74;99110.78;6207933;23;19916;-95
2023/10/22 00:58:08;;;;;;;;;;;;;;;20.52;45.56;99106.59;6208287;23;19911;-96
2023/10/22 01:00:55;;;;;;;;;;;;;;;20.54;46.18;99103.50;6206517;23;19951;-95
2023/10/22 01:04:06;;;;;;;;;;;;;;;20.55;45.25;99105.91;6221146;23;19927;-95
2023/10/22 01:06:39;;;;;;;;;;;;;;;20.58;45.57;99109.91;6257500;23;19930;-96
2023/10/22 01:09:12;;;;;;;;;;;;;;;20.61;45.49;99111.97;6206834;23;19908;-95
2023/10/22 01:12:05;;;;;;;;;;;;;;;20.66;45.38;99119.94;6207587;23;19895;-96
2023/10/22 01:18:01;;;;;;;;;;;;;;;;;;;;;
2023/10/22 01:20:59;;;;;;;;;;;;;;;20.64;45.75;99130.44;6262366;23;19931;-96
2023/10/22 01:23:37;;;;;;;;;;;;;;;20.63;45.78;99136.22;6198322;23;20315;-96
2023/10/22 01:32:31;;;;;;;;;;;;;;;20.44;46.64;99147.69;6146443;23;19937;-96
2023/10/22 01:35:12;;;;;;;;;;;;;;;20.38;47.15;99138.94;6089180;23;19913;-96
2023/10/22 01:40:46;;;;;;;;;;;;;;;20.21;47.07;99150.84;6115549;23;19973;-96
2023/10/22 01:43:27;;;;;;;;;;;;;;;;;;;;;
2023/10/22 01:52:12;;;;;;;;;;;;;;;20.06;47.38;99151.50;6090594;23;19933;-96
2023/10/22 01:55:21;;;;;;;;;;;;;;;20.03;47.41;99155.72;6088408;23;19941;-95
2023/10/22 01:58:09;;;;;;;;;;;;;;;19.97;47.90;99152.38;6084156;23;19910;-96
2023/10/22 02:00:54;;;;;;;;;;;;;;;19.95;47.63;99151.13;6085989;23;19921;-96
2023/10/22 02:03:23;;;;;;;;;;;;;;;19.93;47.47;99156.91;6085280;23;19914;-96
2023/10/22 02:14:58;;;;;;;;;;;;;;;20.01;46.36;99174.38;6175168;23;19960;-96
2023/10/22 02:17:40;;;;;;;;;;;;;;;20.09;45.68;99172.72;6149951;23;19915;-96
2023/10/22 02:20:23;;;;;;;;;;;;;;;20.12;45.65;99170.06;6149259;23;19909;-96
2023/10/22 02:22:58;;;;;;;;;;;;;;;20.15;45.40;99176.78;6152999;23;19893;-95
2023/10/22 02:28:52;;;;;;;;;;;;;;;20.24;45.02;99187.66;6207315;23;19904;-96
2023/10/22 02:31:34;;;;;;;;;;;;;;;20.32;44.54;99184.03;6240392;23;19912;-96
2023/10/22 02:34:27;;;;;;;;;;;;;;;20.37;44.34;99178.34;6181382;23;19900;-96
2023/10/22 02:40:09;;;;;;;;;;;;;;;;;;;;;
2023/10/22 02:43:01;;;;;;;;;;;;;;;20.48;44.26;99186.91;6115561;23;19957;-96
2023/10/22 02:45:38;;;;;;;;;;;;;;;20.52;44.37;99194.13;6127809;23;19910;-96
2023/10/22 02:48:44;;;;;;;;;;;;;;;20.51;44.63;99197.97;6214808;23;19914;-96
2023/10/22 02:51:48;;;;;;;;;;;;;;;20.55;44.06;99192.63;6230140;23;19931;-96
2023/10/22 02:54:36;;;;;;;;;;;;;;;20.58;43.97;99189.25;6207192;23;19908;-96
2023/10/22 02:57:24;;;;;;;;;;;;;;;20.56;44.62;99181.34;6215403;23;19922;-96
2023/10/22 02:59:58;;;;;;;;;;;;;;;20.57;44.54;99188.41;6246084;23;19908;-96
2023/10/22 03:02:40;;;;;;;;;;;;;;;20.54;44.33;99193.75;6221726;23;19915;-96
2023/10/22 03:05:19;;;;;;;;;;;;;;;20.54;44.30;99194.59;6220379;23;19912;-96
2023/10/22 03:08:05;;;;;;;;;;;;;;;20.59;43.60;99205.31;6247287;23;19907;-96
2023/10/22 03:10:49;;;;;;;;;;;;;;;20.64;43.65;99195.31;6246947;23;19912;-96
2023/10/22 03:13:56;;;;;;;;;;;;;;;;;;;;;
2023/10/22 03:17:01;;;;;;;;;;;;;;;20.66;43.86;99204.75;6268182;22;19919;-95
2023/10/22 03:25:16;;;;;;;;;;;;;;;20.66;44.03;99207.50;6227261;23;19931;-95
2023/10/22 03:27:53;;;;;;;;;;;;;;;20.71;43.55;99209.19;6215580;23;19997;-96
2023/10/22 03:34:04;;;;;;;;;;;;;;;20.77;44.64;99233.28;6219017;23;20431;-96
2023/10/22 03:36:41;;;;;;;;;;;;;;;20.74;45.68;99239.44;6235973;23;19927;-96
2023/10/22 03:39:37;;;;;;;;;;;;;;;20.75;45.50;99238.31;6216106;23;19891;-96
2023/10/22 03:42:26;;;;;;;;;;;;;;;20.78;45.30;99228.59;6264692;23;19907;-96
2023/10/22 03:45:32;;;;;;;;;;;;;;;;;;;;;
2023/10/22 03:48:31;;;;;;;;;;;;;;;;;;;;;
2023/10/22 03:51:16;;;;;;;;;;;;;;;20.87;45.57;99217.56;6034568;23;19921;-96
2023/10/22 03:53:54;;;;;;;;;;;;;;;;;;;;;
2023/10/22 03:56:34;;;;;;;;;;;;;;;20.79;46.69;99184.50;6120964;23;19916;-96
2023/10/22 03:59:14;;;;;;;;;;;;;;;20.81;47.13;99192.34;6122246;23;19916;-96
2023/10/22 04:02:00;;;;;;;;;;;;;;;;;;;;;
2023/10/22 04:11:12;;;;;;;;;;;;;;;;;;;;;
2023/10/22 04:13:51;;;;;;;;;;;;;;;;;;;;;
2023/10/22 04:19:44;;;;;;;;;;;;;;;20.58;45.57;99176.34;5924623;24;19911;-96
2023/10/22 04:22:35;;;;;;;;;;;;;;;20.61;45.65;99198.69;5924743;24;19919;-96
2023/10/22 04:25:43;;;;;;;;;;;;;;;;;;;;;
2023/10/22 04:32:02;;;;;;;;;;;;;;;20.62;44.77;99162.81;6152374;23;19936;-95
2023/10/22 04:50:02;;;;;;;;;;;;;;;;;;;;;
2023/10/22 04:53:05;;;;;;;;;;;;;;;20.66;44.49;99155.50;6298209;22;20382;-95
2023/10/22 04:55:34;;;;;;;;;;;;;;;20.65;44.96;99164.06;6263974;23;19907;-95
2023/10/22 04:58:06;;;;;;;;;;;;;;;20.66;44.73;99162.94;6263776;23;19892;-96
2023/10/22 05:13:41;;;;;;;;;;;;;;;;;;;;;
2023/10/22 05:16:47;;;;;;;;;;;;;;;20.92;43.39;99189.97;6049854;23;19914;-96
2023/10/22 05:19:17;;;;;;;;;;;;;;;20.98;42.77;99211.28;6057526;23;19924;-96
2023/10/22 05:21:49;;;;;;;;;;;;;;;21.02;41.72;99205.91;6080322;23;20361;-96
2023/10/22 05:24:15;;;;;;;;;;;;;;;21.11;41.26;99209.34;6081528;23;20401;-95
2023/10/22 05:26:56;;;;;;;;;;;;;;;;;;;;;
2023/10/22 05:29:22;;;;;;;;;;;;;;;21.25;41.11;99202.72;6283818;22;19930;-94
2023/10/22 05:31:55;;;;;;;;;;;;;;;21.31;41.52;99206.81;6259465;22;19915;-94
2023/10/22 05:34:21;;;;;;;;;;;;;;;21.32;41.42;99209.22;6261109;22;19907;-93
2023/10/22 05:36:46;;;;;;;;;;;;;;;21.36;41.56;99217.56;6284358;22;19908;-95
2023/10/22 05:39:15;;;;;;;;;;;;;;;21.40;41.27;99204.75;6259381;22;19986;-96
2023/10/22 05:41:51;;;;;;;;;;;;;;;21.40;41.38;99213.78;6260036;22;19907;-95
2023/10/22 05:44:28;;;;;;;;;;;;;;;;;;;;;
2023/10/22 05:46:55;;;;;;;;;;;;;;;21.44;42.07;99224.88;6231004;22;19927;-95
2023/10/22 05:49:21;;;;;;;;;;;;;;;21.48;41.49;99224.97;6258725;22;19926;-96
2023/10/22 05:51:50;;;;;;;;;;;;;;;21.51;41.71;99227.81;6256345;22;19915;-96
2023/10/22 05:54:15;;;;;;;;;;;;;;;21.54;42.29;99210.69;6280028;22;19916;-95
2023/10/22 05:56:44;;;;;;;;;;;;;;;21.54;41.73;99216.19;6256291;22;19941;-96
2023/10/22 05:59:14;;;;;;;;;;;;;;;21.57;41.50;99222.91;6254603;22;19934;-96
2023/10/22 06:01:41;;;;;;;;;;;;;;;21.59;41.42;99223.34;6256505;22;19960;-95
2023/10/22 06:04:18;;;;;;;;;;;;;;;;;;;;;
2023/10/22 06:06:46;;;;;;;;;;;;;;;21.63;40.86;99221.53;6277924;22;20310;-95
2023/10/22 06:09:21;;;;;;;;;;;;;;;21.67;40.79;99213.41;6283348;22;19939;-95
2023/10/22 06:11:48;;;;;;;;;;;;;;;21.72;41.63;99211.22;6258608;22;20322;-94
2023/10/22 06:14:17;;;;;;;;;;;;;;;21.72;42.26;99211.22;6255847;22;19945;-95
2023/10/22 06:16:48;;;;;;;;;;;;;;;21.72;42.52;99219.44;6256429;22;20014;-96
2023/10/22 06:19:14;;;;;;;;;;;;;;;21.72;42.31;99215.91;6281115;22;19915;-96
2023/10/22 06:21:48;;;;;;;;;;;;;;;21.74;41.41;99210.88;6260759;22;19907;-96
2023/10/22 06:24:18;;;;;;;;;;;;;;;21.80;41.90;99207.53;6261760;22;19907;-96
2023/10/22 06:30:21;;;;;;;;;;;;;;;;;;;;;
2023/10/22 06:32:57;;;;;;;;;;;;;;;22.00;40.25;99203.00;6216333;23;19939;-96
2023/10/22 06:36:03;;;;;;;;;;;;;;;22.09;39.95;99191.09;6193252;23;19908;-95
2023/10/22 06:39:12;;;;;;;;;;;;;;;22.15;39.98;99195.19;6115588;23;19909;-96
2023/10/22 06:42:19;;;;;;;;;;;;;;;22.27;39.72;99189.66;6057222;23;19910;-95
2023/10/22 06:51:05;;;;;;;;;;;;;;;22.65;37.87;99185.53;5994448;23;20369;-96
2023/10/22 06:53:44;;;;;;;;;;;;;;;22.75;38.12;99185.00;5993240;24;20010;-96
2023/10/22 06:56:54;;;;;;;;;;;;;;;;;;;;;
2023/10/22 06:59:43;;;;;;;;;;;;;;;22.92;37.11;99169.31;6036859;23;19933;-97
2023/10/22 07:02:53;;;;;;;;;;;;;;;;;;;;;
2023/10/22 07:06:10;;;;;;;;;;;;;;;23.01;36.75;99167.19;6071509;23;19933;-96
2023/10/22 07:08:32;;;;;;;;;;;;;;;23.04;36.52;99177.50;6076990;23;19909;-96
2023/10/22 07:11:01;;;;;;;;;;;;;;;23.04;36.71;99169.25;6107879;23;19921;-96
2023/10/22 07:19:33;;;;;;;;;;;;;;;23.08;36.40;99169.34;6221831;23;19950;-94
2023/10/22 07:25:14;;;;;;;;;;;;;;;;;;;;;
2023/10/22 07:27:58;;;;;;;;;;;;;;;23.09;36.80;99173.66;6200310;23;19919;-94
2023/10/22 07:30:29;;;;;;;;;;;;;;;23.08;36.80;99174.84;6195761;23;19934;-95
2023/10/22 07:33:11;;;;;;;;;;;;;;;;;;;;;
2023/10/22 07:35:49;;;;;;;;;;;;;;;;;;;;;
2023/10/22 07:38:40;;;;;;;;;;;;;;;23.19;36.91;99175.84;6202558;23;19912;-95
2023/10/22 07:41:29;;;;;;;;;;;;;;;23.23;36.66;99170.44;6220159;23;20267;-96
2023/10/22 07:44:10;;;;;;;;;;;;;;;23.25;35.98;99179.13;6199078;23;19916;-96
2023/10/22 07:46:46;;;;;;;;;;;;;;;;;;;;;
2023/10/22 07:49:13;;;;;;;;;;;;;;;23.41;34.98;99174.41;6249104;23;19990;-90
2023/10/22 07:51:48;;;;;;;;;;;;;;;23.44;35.11;99173.66;6271799;22;20262;-96
2023/10/22 07:54:24;;;;;;;;;;;;;;;23.55;34.65;99168.38;6282129;22;19907;-96
2023/10/22 07:56:52;;;;;;;;;;;;;;;23.62;34.69;99168.56;6283623;22;19990;-96
2023/10/22 07:59:45;;;;;;;;;;;;;;;23.72;34.32;99162.47;6257832;22;19915;-96
2023/10/22 08:02:11;;;;;;;;;;;;;;;23.82;34.81;99161.09;6272391;22;19907;-95
2023/10/22 08:05:30;;;;;;;;;;;;;;;23.94;34.20;99165.66;6229088;23;19903;-96
2023/10/22 08:08:59;;;;;;;;;;;;;;;;;;;;;
2023/10/22 08:11:49;;;;;;;;;;;;;;;24.18;33.17;99165.34;6211813;23;19919;-96
2023/10/22 08:14:43;;;;;;;;;;;;;;;;;;;;;
2023/10/22 08:36:36;;;;;;;;;;;;;;;24.93;32.27;99154.84;6179124;23;19951;-93
2023/10/22 08:39:15;;;;;;;;;;;;;;;24.96;32.13;99156.03;6164774;23;19924;-96
2023/10/22 08:51:11;;;;;;;;;;;;;;;25.34;31.76;99159.78;6112530;23;19894;-96
2023/10/22 08:56:28;;;;;;;;;;;;;;;25.56;31.67;99155.31;6024570;23;19914;-96
2023/10/22 09:55:27;;;;;;;;;;;;;;;27.32;29.84;99068.53;6255453;22;20023;-95
2023/10/22 09:57:53;;;;;;;;;;;;;;;27.42;26.75;99067.78;6232495;23;19935;-95
2023/10/22 10:00:30;;;;;;;;;;;;;;;27.47;26.90;99061.84;6232050;23;19908;-96
2023/10/22 10:02:58;;;;;;;;;;;;;;;27.58;24.91;99048.88;6233289;23;19908;-95
2023/10/22 10:05:33;;;;;;;;;;;;;;;27.70;24.95;99053.22;6231849;23;19907;-96
2023/10/22 10:08:06;;;;;;;;;;;;;;;27.83;24.76;99050.91;6232835;23;19923;-96
2023/10/22 10:10:39;;;;;;;;;;;;;;;27.96;24.27;99035.53;6229875;23;19935;-95
2023/10/22 10:13:43;;;;;;;;;;;;;;;;;;;;;
2023/10/22 10:16:05;;;;;;;;;;;;;;;28.20;24.52;99030.38;6247082;23;19907;-96
2023/10/22 10:18:52;;;;;;;;;;;;;;;28.33;23.72;99023.25;6228953;23;19908;-96
2023/10/22 10:21:38;;;;;;;;;;;;;;;28.47;23.38;99027.97;6254223;23;19912;-96
2023/10/22 10:24:43;;;;;;;;;;;;;;;28.60;23.67;99029.19;6254593;23;19908;-96
2023/10/22 10:27:11;;;;;;;;;;;;;;;28.77;23.43;99043.41;6230648;23;19978;-96
2023/10/22 10:29:38;;;;;;;;;;;;;;;28.84;23.52;99032.28;6250664;23;19907;-96
2023/10/22 10:32:16;;;;;;;;;;;;;;;28.91;23.29;99026.75;6228830;23;19908;-96
2023/10/22 10:34:43;;;;;;;;;;;;;;;28.97;22.57;99025.13;6254825;23;19954;-96
2023/10/22 10:37:12;;;;;;;;;;;;;;;29.01;23.04;99025.91;6229641;23;20383;-96
2023/10/22 10:39:51;;;;;;;;;;;;;;;;;;;;;
2023/10/22 10:42:32;;;;;;;;;;;;;;;29.06;22.01;99021.94;6255257;23;20289;-96
2023/10/22 10:44:58;;;;;;;;;;;;;;;29.08;21.78;99016.00;6252742;23;19915;-96
2023/10/22 10:47:24;;;;;;;;;;;;;;;29.05;22.21;99014.78;6254939;23;19907;-96
2023/10/22 10:50:11;;;;;;;;;;;;;;;29.04;22.32;99010.44;6252047;23;19916;-96
2023/10/22 10:52:46;;;;;;;;;;;;;;;29.10;22.43;99013.59;6254105;23;19907;-96
2023/10/22 10:55:29;;;;;;;;;;;;;;;;;;;;;
2023/10/22 10:57:57;;;;;;;;;;;;;;;29.09;22.36;99014.78;6255565;23;20005;-96
2023/10/22 11:00:59;;;;;;;;;;;;;;;29.09;22.50;99012.00;6228851;23;19937;-96
2023/10/22 11:03:22;;;;;;;;;;;;;;;29.12;22.21;99014.03;6245308;23;19942;-96
2023/10/22 11:06:08;;;;;;;;;;;;;;;29.15;22.07;99019.53;6227247;23;19934;-96
2023/10/22 11:08:36;;;;;;;;;;;;;;;29.10;22.43;99014.41;6252584;23;19908;-96
2023/10/22 11:11:12;;;;;;;;;;;;;;;29.08;22.52;99022.31;6226324;23;19973;-96
2023/10/22 11:13:38;;;;;;;;;;;;;;;29.11;22.27;99024.31;6227048;23;19927;-96
2023/10/22 11:16:06;;;;;;;;;;;;;;;29.09;23.10;99021.09;6227589;23;19915;-96
2023/10/22 11:18:39;;;;;;;;;;;;;;;29.02;22.95;99023.94;6228369;23;20299;-96
2023/10/22 11:21:04;;;;;;;;;;;;;;;29.08;22.69;99021.53;6227638;23;19916;-96
2023/10/22 11:23:46;;;;;;;;;;;;;;;29.06;23.21;99027.47;6229472;23;20392;-95
2023/10/22 11:29:15;;;;;;;;;;;;;;;29.08;23.54;99027.84;6198056;23;19908;-96
2023/10/22 11:31:51;;;;;;;;;;;;;;;29.01;23.18;99030.66;6220879;23;19912;-96
2023/10/22 11:34:18;;;;;;;;;;;;;;;29.00;23.42;99029.06;6219670;23;19908;-96
2023/10/22 11:36:57;;;;;;;;;;;;;;;28.92;23.77;99030.28;6220871;23;19908;-96
2023/10/22 11:39:22;;;;;;;;;;;;;;;28.90;23.68;99025.13;6220303;23;19986;-96
2023/10/22 11:42:02;;;;;;;;;;;;;;;28.86;23.84;99031.91;6221551;23;19931;-96
2023/10/22 11:44:32;;;;;;;;;;;;;;;28.83;23.97;99030.72;6222263;23;19908;-94
2023/10/22 11:47:01;;;;;;;;;;;;;;;28.84;23.94;99026.75;6222456;23;19931;-96
2023/10/22 11:49:29;;;;;;;;;;;;;;;28.79;24.38;99025.19;6225112;23;19916;-96
2023/10/22 11:51:54;;;;;;;;;;;;;;;28.76;24.13;99042.63;6232332;23;19986;-96
2023/10/22 11:54:36;;;;;;;;;;;;;;;28.76;24.20;99034.31;6227164;23;19927;-95
2023/10/22 11:57:19;;;;;;;;;;;;;;;28.68;24.35;99035.50;6229286;23;19907;-96
2023/10/22 11:59:47;;;;;;;;;;;;;;;28.67;24.41;99033.13;6243947;23;19911;-96
2023/10/22 12:02:12;;;;;;;;;;;;;;;28.64;24.13;99045.00;6231371;23;19908;-96
2023/10/22 12:04:48;;;;;;;;;;;;;;;28.55;24.80;99032.34;6230013;23;20304;-96
2023/10/22 12:07:13;;;;;;;;;;;;;;;28.59;24.44;99037.88;6229812;23;19951;-95
2023/10/22 12:09:41;;;;;;;;;;;;;;;28.59;24.61;99035.13;6229594;23;19908;-96
2023/10/22 12:12:27;;;;;;;;;;;;;;;;;;;;;
2023/10/22 12:15:30;;;;;;;;;;;;;;;28.61;25.30;99029.97;6257797;22;20314;-94
2023/10/22 12:18:10;;;;;;;;;;;;;;;28.58;24.94;99033.56;6251532;22;19914;-96
2023/10/22 12:20:37;;;;;;;;;;;;;;;28.59;24.75;99033.13;6255692;23;19912;-95
2023/10/22 12:23:03;;;;;;;;;;;;;;;28.54;24.99;99038.31;6227697;23;19915;-95
2023/10/22 12:25:31;;;;;;;;;;;;;;;28.56;25.01;99036.72;6249978;23;19908;-93
2023/10/22 12:27:58;;;;;;;;;;;;;;;28.56;25.06;99028.41;6250245;23;20334;-94
2023/10/22 12:30:24;;;;;;;;;;;;;;;28.55;24.92;99035.13;6250467;23;19912;-92
2023/10/22 12:32:49;;;;;;;;;;;;;;;28.51;24.90;99033.53;6249591;23;19907;-95
2023/10/22 12:35:14;;;;;;;;;;;;;;;28.51;25.14;99033.53;6224645;23;19911;-91
2023/10/22 12:37:40;;;;;;;;;;;;;;;28.44;25.26;99039.06;6221831;23;19907;-95
2023/10/22 12:40:05;;;;;;;;;;;;;;;28.42;25.57;99037.47;6254056;23;19892;-96
2023/10/22 12:46:01;;;;;;;;;;;;;;;28.38;25.65;99028.38;6198914;23;19921;-96
2023/10/22 12:55:43;;;;;;;;;;;;;;;;;;;;;
2023/10/22 12:58:35;;;;;;;;;;;;;;;28.20;26.76;99019.31;6048322;23;19968;-96
2023/10/22 13:01:29;;;;;;;;;;;;;;;28.19;27.88;99026.03;6068794;23;19965;-96
2023/10/22 13:04:17;;;;;;;;;;;;;;;;;;;;;
2023/10/22 13:07:40;;;;;;;;;;;;;;;;;;;;;
2023/10/22 13:21:57;;;;;;;;;;;;;;;27.73;30.04;99013.72;6255143;22;19903;-96
2023/10/22 13:24:51;;;;;;;;;;;;;;;27.68;30.31;99002.25;6314109;22;19983;-95
2023/10/22 13:27:24;;;;;;;;;;;;;;;27.60;30.02;99009.72;6320044;22;19907;-96
2023/10/22 13:29:53;;;;;;;;;;;;;;;27.55;30.76;99001.84;6265423;22;19946;-96
2023/10/22 13:32:38;;;;;;;;;;;;;;;27.49;30.74;99014.47;6265026;22;19907;-93
2023/10/22 13:35:07;;;;;;;;;;;;;;;27.42;30.52;99012.47;6317359;22;19942;-96
2023/10/22 13:37:42;;;;;;;;;;;;;;;;;;;;;
2023/10/22 13:40:12;;;;;;;;;;;;;;;27.36;31.08;99014.03;6296215;22;19934;-96
2023/10/22 13:42:43;;;;;;;;;;;;;;;27.32;31.15;99016.78;6294272;22;19914;-96
2023/10/22 13:45:38;;;;;;;;;;;;;;;27.30;30.95;99008.09;6202228;23;19907;-96
2023/10/22 13:48:05;;;;;;;;;;;;;;;27.26;31.10;99007.28;6197131;23;19915;-96
2023/10/22 13:50:35;;;;;;;;;;;;;;;27.18;31.68;99009.19;6197295;23;20347;-96
2023/10/22 13:53:15;;;;;;;;;;;;;;;;;;;;;
2023/10/22 13:55:43;;;;;;;;;;;;;;;27.08;32.13;99021.03;6200103;23;19935;-96
2023/10/22 13:58:09;;;;;;;;;;;;;;;27.04;32.47;99013.88;6196374;23;19908;-96
2023/10/22 14:00:43;;;;;;;;;;;;;;;27.00;32.48;99014.66;6225765;23;19916;-96
2023/10/22 14:03:40;;;;;;;;;;;;;;;26.97;32.77;99012.66;6224518;23;19908;-94
2023/10/22 14:06:07;;;;;;;;;;;;;;;26.87;32.73;99018.94;6224656;23;19931;-96
2023/10/22 14:08:43;;;;;;;;;;;;;;;26.86;32.96;99011.06;6199418;23;19908;-96
2023/10/22 14:11:19;;;;;;;;;;;;;;;26.78;33.02;99016.53;6225182;23;20027;-96
2023/10/22 14:13:56;;;;;;;;;;;;;;;;;;;;;
2023/10/22 14:16:22;;;;;;;;;;;;;;;26.67;34.03;99012.13;6244033;22;19926;-96
2023/10/22 14:18:47;;;;;;;;;;;;;;;26.62;33.99;99013.28;6267773;22;19914;-96
2023/10/22 14:21:18;;;;;;;;;;;;;;;26.57;34.33;99014.44;6266962;22;19918;-96
2023/10/22 14:23:45;;;;;;;;;;;;;;;26.48;34.27;99010.38;6293440;22;19922;-96
2023/10/22 14:26:13;;;;;;;;;;;;;;;26.44;34.34;99015.91;6259896;22;19908;-96
2023/10/22 14:28:44;;;;;;;;;;;;;;;26.31;34.27;99014.63;6285961;22;19914;-95
2023/10/22 14:31:12;;;;;;;;;;;;;;;26.26;34.30;99009.47;6284831;22;19926;-95
2023/10/22 14:33:39;;;;;;;;;;;;;;;26.20;34.45;99011.78;6287140;22;19928;-95
2023/10/22 14:36:12;;;;;;;;;;;;;;;26.19;34.57;99001.94;6262206;22;19960;-96
2023/10/22 14:38:37;;;;;;;;;;;;;;;26.10;34.43;99016.03;6262227;22;19891;-95
2023/10/22 14:41:03;;;;;;;;;;;;;;;26.06;34.89;99014.41;6286161;22;19960;-95
2023/10/22 14:43:49;;;;;;;;;;;;;;;25.96;34.82;99018.66;6288445;22;19918;-96
2023/10/22 14:46:17;;;;;;;;;;;;;;;25.90;35.10;99023.75;6288343;22;19911;-95
2023/10/22 14:48:45;;;;;;;;;;;;;;;25.84;35.56;99021.69;6290377;22;19956;-96
2023/10/22 14:51:10;;;;;;;;;;;;;;;25.80;35.69;99018.91;6263483;22;19929;-94
2023/10/22 14:53:36;;;;;;;;;;;;;;;25.74;35.79;99020.41;6261198;22;19906;-96
2023/10/22 14:56:02;;;;;;;;;;;;;;;25.69;35.83;99023.50;6286239;22;19910;-95
2023/10/22 14:58:29;;;;;;;;;;;;;;;25.60;35.85;99021.06;6260091;22;19918;-96
2023/10/22 15:01:00;;;;;;;;;;;;;;;25.51;36.39;99021.38;6260851;22;20287;-94
2023/10/22 15:03:32;;;;;;;;;;;;;;;25.45;36.81;99027.59;6286572;22;20317;-94
2023/10/22 15:06:13;;;;;;;;;;;;;;;25.35;36.56;99032.59;6261803;22;19913;-96
2023/10/22 15:08:45;;;;;;;;;;;;;;;25.27;36.94;99036.44;6311621;22;20387;-96
2023/10/22 15:11:19;;;;;;;;;;;;;;;25.22;37.20;99039.53;6263574;22;19919;-94
2023/10/22 15:13:47;;;;;;;;;;;;;;;25.13;36.98;99037.06;6263613;22;19929;-94
2023/10/22 15:16:16;;;;;;;;;;;;;;;25.10;37.45;99042.50;6260378;22;19906;-95
2023/10/22 15:18:44;;;;;;;;;;;;;;;25.02;37.75;99047.13;6284315;22;19907;-94
2023/10/22 15:21:21;;;;;;;;;;;;;;;24.91;37.72;99049.75;6260594;22;19957;-96
2023/10/22 15:23:51;;;;;;;;;;;;;;;24.89;37.92;99059.56;6256176;22;20331;-96
2023/10/22 15:26:17;;;;;;;;;;;;;;;24.80;38.07;99063.38;6231453;22;19981;-94
2023/10/22 15:28:47;;;;;;;;;;;;;;;24.69;38.57;99061.63;6230527;22;19918;-95
2023/10/22 15:31:21;;;;;;;;;;;;;;;24.63;38.93;99065.84;6228929;22;19911;-96
2023/10/22 15:33:52;;;;;;;;;;;;;;;24.59;38.72;99071.28;6232292;22;20250;-94
2023/10/22 15:36:18;;;;;;;;;;;;;;;24.55;38.98;99073.19;6256002;22;19930;-94
2023/10/22 15:38:44;;;;;;;;;;;;;;;24.46;39.10;99084.44;6231285;22;19908;-94
2023/10/22 15:41:11;;;;;;;;;;;;;;;24.40;39.47;99088.66;6231516;22;19918;-96
2023/10/22 15:43:38;;;;;;;;;;;;;;;24.31;39.83;99085.38;6230215;22;19947;-95
2023/10/22 15:46:04;;;;;;;;;;;;;;;24.21;39.81;99082.06;6230233;22;19918;-95
2023/10/22 15:48:30;;;;;;;;;;;;;;;24.12;39.93;99078.78;6253802;22;19982;-96
2023/10/22 15:50:56;;;;;;;;;;;;;;;24.07;39.99;99086.53;6228015;22;19919;-95
2023/10/22 15:53:22;;;;;;;;;;;;;;;24.00;40.42;99085.25;6227915;22;19911;-94
2023/10/22 15:55:49;;;;;;;;;;;;;;;23.99;40.59;99093.88;6230478;22;19913;-94
2023/10/22 15:58:14;;;;;;;;;;;;;;;23.96;40.65;99097.34;6254834;22;19917;-95
2023/10/22 16:00:41;;;;;;;;;;;;;;;23.89;40.94;99088.97;6230172;22;19915;-95
2023/10/22 16:03:08;;;;;;;;;;;;;;;23.83;41.11;99088.47;6229482;22;19911;-95
2023/10/22 16:05:39;;;;;;;;;;;;;;;23.78;41.38;99097.81;6229547;22;20329;-95
2023/10/22 16:08:08;;;;;;;;;;;;;;;23.73;41.52;99102.78;6253101;22;19914;-96
2023/10/22 16:10:35;;;;;;;;;;;;;;;23.68;41.80;99103.88;6229289;22;19934;-95
2023/10/22 16:13:01;;;;;;;;;;;;;;;23.62;42.35;99105.34;6227828;22;19992;-95
2023/10/22 16:15:28;;;;;;;;;;;;;;;23.57;42.29;99111.09;6253520;22;19938;-95
2023/10/22 16:17:54;;;;;;;;;;;;;;;23.54;42.67;99120.09;6228106;22;19917;-96
2023/10/22 16:20:23;;;;;;;;;;;;;;;23.52;42.94;99119.66;6280828;22;19915;-95
2023/10/22 16:22:51;;;;;;;;;;;;;;;23.46;43.10;99119.13;6252359;22;19915;-95
2023/10/22 16:25:17;;;;;;;;;;;;;;;23.42;43.60;99128.47;6228458;22;19986;-95
2023/10/22 16:27:42;;;;;;;;;;;;;;;23.36;43.57;99126.00;6229955;22;19911;-95
2023/10/22 16:30:12;;;;;;;;;;;;;;;23.30;43.72;99118.41;6229399;22;19926;-95
2023/10/22 16:32:40;;;;;;;;;;;;;;;23.24;44.20;99128.06;6281608;22;19930;-96
2023/10/22 16:35:06;;;;;;;;;;;;;;;23.17;44.50;99125.97;6254552;22;20249;-95
2023/10/22 16:37:33;;;;;;;;;;;;;;;23.15;45.03;99131.03;6255510;22;19921;-96
2023/10/22 16:39:58;;;;;;;;;;;;;;;23.10;44.98;99134.06;6229491;22;20267;-95
2023/10/22 16:42:24;;;;;;;;;;;;;;;23.04;45.30;99130.00;6229272;22;19938;-96
2023/10/22 16:44:51;;;;;;;;;;;;;;;22.98;45.43;99135.72;6229136;22;20012;-95
2023/10/22 16:47:21;;;;;;;;;;;;;;;22.94;45.28;99137.59;6281242;22;19907;-96
2023/10/22 16:49:46;;;;;;;;;;;;;;;22.91;45.50;99134.75;6253537;22;20250;-96
2023/10/22 16:52:12;;;;;;;;;;;;;;;22.86;46.06;99141.34;6227860;22;19907;-96
2023/10/22 16:54:39;;;;;;;;;;;;;;;22.83;46.04;99146.72;6227327;22;19914;-95
2023/10/22 16:57:06;;;;;;;;;;;;;;;22.75;46.01;99148.53;6254210;22;19907;-95
2023/10/22 16:59:36;;;;;;;;;;;;;;;22.70;46.41;99152.34;6255114;22;19907;-96
2023/10/22 17:02:02;;;;;;;;;;;;;;;22.67;46.40;99155.00;6256532;22;20319;-96
2023/10/22 17:04:27;;;;;;;;;;;;;;;22.64;46.35;99152.94;6229640;22;19907;-94
2023/10/22 17:06:53;;;;;;;;;;;;;;;22.59;46.89;99154.03;6229066;22;19954;-96
2023/10/22 17:09:19;;;;;;;;;;;;;;;22.51;47.17;99155.78;6229370;22;20183;-95
2023/10/22 17:11:45;;;;;;;;;;;;;;;22.51;47.49;99160.47;6229366;22;20267;-96
2023/10/22 17:14:10;;;;;;;;;;;;;;;22.47;47.46;99167.81;6229933;22;19912;-96
2023/10/22 17:16:38;;;;;;;;;;;;;;;22.45;47.24;99170.13;6230872;22;19933;-96
2023/10/22 17:19:04;;;;;;;;;;;;;;;22.38;47.93;99163.31;6234963;22;19923;-96
2023/10/22 17:21:30;;;;;;;;;;;;;;;22.34;47.94;99161.63;6225906;23;19969;-96
2023/10/22 17:23:58;;;;;;;;;;;;;;;22.33;48.15;99165.50;6227168;23;19908;-96
2023/10/22 17:28:59;;;;;;;;;;;;;;;22.29;48.86;99173.66;6251062;22;19920;-96
2023/10/22 17:31:25;;;;;;;;;;;;;;;22.28;48.72;99174.78;6201708;23;19986;-95
2023/10/22 17:33:51;;;;;;;;;;;;;;;22.26;48.67;99170.81;6201540;23;19911;-96
2023/10/22 17:36:17;;;;;;;;;;;;;;;22.25;49.08;99172.75;6198815;23;19918;-96
2023/10/22 17:38:43;;;;;;;;;;;;;;;22.24;49.11;99182.13;6198662;23;20253;-95
2023/10/22 17:41:08;;;;;;;;;;;;;;;22.22;49.53;99175.38;6200920;23;19919;-96
2023/10/22 17:43:34;;;;;;;;;;;;;;;22.18;49.29;99178.00;6198230;23;19930;-96
2023/10/22 17:45:59;;;;;;;;;;;;;;;22.18;49.32;99183.50;6249302;22;19908;-96
2023/10/22 17:48:24;;;;;;;;;;;;;;;22.17;49.42;99187.41;6249967;22;20314;-94
2023/10/22 17:51:00;;;;;;;;;;;;;;;22.17;48.98;99190.16;6250872;22;19916;-95
2023/10/22 17:53:25;;;;;;;;;;;;;;;22.15;49.09;99193.22;6224684;23;19908;-95
2023/10/22 17:56:04;;;;;;;;;;;;;;;22.16;48.61;99203.06;6251336;22;20322;-94
2023/10/22 17:58:29;;;;;;;;;;;;;;;22.19;48.34;99207.84;6251346;22;19907;-95
2023/10/22 18:00:56;;;;;;;;;;;;;;;22.23;48.29;99204.41;6252748;22;19931;-96
2023/10/22 18:03:21;;;;;;;;;;;;;;;22.24;48.39;99204.06;6254027;22;19983;-94
2023/10/22 18:05:47;;;;;;;;;;;;;;;22.23;48.54;99207.16;6251409;22;20325;-95
2023/10/22 18:08:12;;;;;;;;;;;;;;;22.20;48.57;99222.34;6252393;22;19907;-96
2023/10/22 18:10:37;;;;;;;;;;;;;;;22.20;48.45;99222.34;6253737;22;19969;-96
2023/10/22 18:13:03;;;;;;;;;;;;;;;22.17;48.60;99232.06;6253656;22;20334;-95